createdAt,value
2022-08-12T00:00:26.348Z,0.00
2022-08-12T00:01:26.977Z,0.00
2022-08-12T00:02:27.337Z,0.00
2022-08-12T00:03:26.394Z,0.00
2022-08-12T00:04:26.320Z,0.00
2022-08-12T00:05:26.299Z,0.00
2022-08-12T00:06:26.280Z,0.00
2022-08-12T00:07:26.269Z,0.00
2022-08-12T00:08:30.887Z,0.00
2022-08-12T00:09:27.256Z,0.00
2022-08-12T00:10:26.261Z,0.00
2022-08-12T00:11:26.228Z,0.00
2022-08-12T00:12:26.212Z,0.00
2022-08-12T00:13:26.217Z,0.00
2022-08-12T00:14:26.191Z,0.00
2022-08-12T00:15:26.187Z,0.00
2022-08-12T00:16:26.168Z,0.00
2022-08-12T00:17:26.158Z,0.00
2022-08-12T00:18:26.161Z,0.00
2022-08-12T00:19:26.138Z,0.00
2022-08-12T00:20:26.122Z,0.00
2022-08-12T00:21:26.677Z,0.00
2022-08-12T00:22:26.102Z,0.00
2022-08-12T00:23:26.123Z,0.00
2022-08-12T00:24:26.077Z,0.00
2022-08-12T00:26:05.565Z,0.00
2022-08-12T00:26:27.057Z,0.00
2022-08-12T00:27:27.540Z,0.00
2022-08-12T00:28:27.051Z,0.00
2022-08-12T00:29:26.036Z,0.00
2022-08-12T00:30:26.010Z,0.00
2022-08-12T00:31:26.006Z,0.00
2022-08-12T00:32:35.453Z,0.00
2022-08-12T00:33:32.286Z,0.00
2022-08-12T00:34:26.977Z,0.00
2022-08-12T00:35:36.234Z,0.00
2022-08-12T00:36:34.905Z,0.00
2022-08-12T00:37:28.305Z,0.00
2022-08-12T00:38:25.931Z,0.00
2022-08-12T00:39:25.967Z,0.00
2022-08-12T00:40:25.905Z,0.00
2022-08-12T00:41:25.892Z,0.00
2022-08-12T00:42:25.878Z,0.00
2022-08-12T00:43:25.872Z,0.00
2022-08-12T00:44:25.862Z,0.00
2022-08-12T00:45:25.862Z,0.00
2022-08-12T00:46:25.854Z,0.00
2022-08-12T00:47:26.151Z,0.00
2022-08-12T00:48:25.816Z,0.00
2022-08-12T00:49:25.798Z,0.00
2022-08-12T00:50:25.805Z,0.00
2022-08-12T00:51:25.778Z,0.00
2022-08-12T00:52:25.778Z,0.00
2022-08-12T00:53:25.756Z,0.00
2022-08-12T00:54:25.750Z,0.00
2022-08-12T00:55:25.745Z,0.00
2022-08-12T00:56:25.729Z,0.00
2022-08-12T00:57:25.712Z,0.00
2022-08-12T00:58:25.706Z,0.00
2022-08-12T00:59:25.729Z,0.00
2022-08-12T01:00:25.682Z,0.00
2022-08-12T01:01:26.509Z,0.00
2022-08-12T01:02:25.658Z,0.00
2022-08-12T01:03:25.647Z,0.00
2022-08-12T01:04:25.639Z,0.00
2022-08-12T01:05:25.659Z,0.00
2022-08-12T01:06:25.616Z,0.00
2022-08-12T01:07:25.612Z,0.00
2022-08-12T01:08:25.597Z,0.00
2022-08-12T01:09:25.582Z,0.00
2022-08-12T01:10:29.486Z,0.00
2022-08-12T01:11:26.562Z,0.00
2022-08-12T01:12:25.554Z,0.00
2022-08-12T01:13:25.569Z,0.00
2022-08-12T01:14:25.527Z,0.00
2022-08-12T01:15:25.544Z,0.00
2022-08-12T01:16:25.503Z,0.00
2022-08-12T01:17:25.489Z,0.00
2022-08-12T01:18:25.484Z,0.00
2022-08-12T01:19:25.468Z,0.00
2022-08-12T01:20:25.461Z,0.00
2022-08-12T01:21:25.461Z,0.00
2022-08-12T01:22:25.437Z,0.00
2022-08-12T01:23:25.435Z,0.00
2022-08-12T01:24:31.058Z,0.00
2022-08-12T01:25:26.410Z,0.00
2022-08-12T01:26:25.410Z,0.00
2022-08-12T01:27:25.399Z,0.00
2022-08-12T01:28:25.369Z,0.00
2022-08-12T01:29:25.359Z,0.00
2022-08-12T01:30:25.351Z,0.00
2022-08-12T01:31:25.966Z,0.00
2022-08-12T01:32:25.342Z,0.00
2022-08-12T01:33:25.364Z,0.00
2022-08-12T01:34:35.840Z,0.00
2022-08-12T01:35:26.289Z,0.00
2022-08-12T01:36:25.293Z,0.00
2022-08-12T01:37:25.350Z,0.00
2022-08-12T01:38:29.478Z,0.00
2022-08-12T01:39:25.312Z,0.00
2022-08-12T01:40:36.149Z,0.00
2022-08-12T01:41:26.221Z,0.00
2022-08-12T01:42:25.240Z,0.00
2022-08-12T01:43:25.203Z,0.00
2022-08-12T01:44:25.193Z,0.00
2022-08-12T01:45:25.237Z,0.00
2022-08-12T01:46:25.174Z,0.00
2022-08-12T01:47:25.157Z,0.00
2022-08-12T01:48:25.164Z,0.00
2022-08-12T01:49:25.132Z,0.00
2022-08-12T01:50:25.132Z,0.00
2022-08-12T01:52:14.783Z,0.00
2022-08-12T01:52:26.142Z,0.00
2022-08-12T01:53:25.109Z,0.00
2022-08-12T01:54:25.086Z,0.00
2022-08-12T01:55:25.071Z,0.00
2022-08-12T01:56:25.071Z,0.00
2022-08-12T01:57:59.575Z,0.00
2022-08-12T01:58:26.059Z,0.00
2022-08-12T01:59:25.022Z,0.00
2022-08-12T02:00:35.923Z,0.00
2022-08-12T02:01:26.087Z,0.00
2022-08-12T02:02:24.997Z,0.00
2022-08-12T02:03:24.990Z,0.00
2022-08-12T02:04:24.974Z,0.00
2022-08-12T02:05:24.951Z,0.00
2022-08-12T02:06:24.946Z,0.00
2022-08-12T02:07:24.933Z,0.00
2022-08-12T02:08:24.949Z,0.00
2022-08-12T02:09:24.914Z,0.00
2022-08-12T02:10:49.933Z,0.00
2022-08-12T02:11:25.891Z,0.00
2022-08-12T02:12:24.879Z,0.00
2022-08-12T02:13:48.219Z,0.00
2022-08-12T02:14:25.861Z,0.00
2022-08-12T02:15:24.849Z,0.00
2022-08-12T02:16:24.860Z,0.00
2022-08-12T02:17:54.806Z,0.00
2022-08-12T02:18:25.817Z,0.00
2022-08-12T02:19:24.803Z,0.00
2022-08-12T02:20:24.812Z,0.00
2022-08-12T02:21:25.796Z,0.00
2022-08-12T02:22:24.776Z,0.00
2022-08-12T02:23:24.758Z,0.00
2022-08-12T02:24:24.752Z,0.00
2022-08-12T02:25:24.744Z,0.00
2022-08-12T02:26:24.731Z,0.00
2022-08-12T02:27:24.723Z,0.00
2022-08-12T02:28:24.709Z,0.00
2022-08-12T02:29:24.711Z,0.00
2022-08-12T02:30:24.682Z,0.00
2022-08-12T02:31:24.674Z,0.00
2022-08-12T02:32:24.661Z,0.00
2022-08-12T02:33:24.649Z,0.00
2022-08-12T02:34:24.644Z,0.00
2022-08-12T02:35:24.687Z,0.00
2022-08-12T02:36:24.616Z,0.00
2022-08-12T02:37:24.606Z,0.00
2022-08-12T02:38:24.597Z,0.00
2022-08-12T02:39:24.661Z,0.00
2022-08-12T02:40:24.581Z,0.00
2022-08-12T02:41:24.570Z,0.00
2022-08-12T02:42:24.546Z,0.00
2022-08-12T02:43:24.538Z,0.00
2022-08-12T02:44:24.539Z,0.00
2022-08-12T02:45:24.511Z,0.00
2022-08-12T02:46:24.518Z,0.00
2022-08-12T02:47:58.530Z,0.00
2022-08-12T02:48:25.493Z,0.00
2022-08-12T02:49:24.465Z,0.00
2022-08-12T02:50:24.462Z,0.00
2022-08-12T02:51:24.479Z,0.00
2022-08-12T02:52:24.440Z,0.00
2022-08-12T02:53:24.422Z,0.00
2022-08-12T02:54:24.423Z,0.00
2022-08-12T02:55:28.624Z,0.00
2022-08-12T02:56:25.402Z,0.00
2022-08-12T02:57:24.376Z,0.00
2022-08-12T02:58:32.924Z,0.00
2022-08-12T02:59:25.364Z,0.00
2022-08-12T03:00:24.352Z,0.00
2022-08-12T03:01:24.418Z,0.00
2022-08-12T03:02:24.330Z,0.00
2022-08-12T03:03:24.312Z,0.00
2022-08-12T03:04:24.348Z,0.00
2022-08-12T03:05:24.289Z,0.00
2022-08-12T03:06:24.293Z,0.00
2022-08-12T03:07:27.782Z,0.00
2022-08-12T03:08:31.434Z,0.00
2022-08-12T03:09:24.273Z,0.00
2022-08-12T03:10:37.526Z,0.00
2022-08-12T03:11:25.259Z,0.00
2022-08-12T03:12:24.233Z,0.00
2022-08-12T03:13:24.203Z,0.00
2022-08-12T03:14:24.194Z,0.00
2022-08-12T03:15:24.192Z,0.00
2022-08-12T03:16:24.177Z,0.00
2022-08-12T03:17:24.170Z,0.00
2022-08-12T03:18:27.716Z,0.00
2022-08-12T03:19:24.160Z,0.00
2022-08-12T03:20:28.356Z,0.00
2022-08-12T03:22:05.605Z,0.00
2022-08-12T03:22:25.108Z,0.00
2022-08-12T03:23:29.843Z,0.00
2022-08-12T03:24:25.095Z,0.00
2022-08-12T03:25:24.070Z,0.00
2022-08-12T03:26:24.072Z,0.00
2022-08-12T03:27:24.061Z,0.00
2022-08-12T03:28:24.260Z,0.00
2022-08-12T03:29:24.024Z,0.00
2022-08-12T03:30:24.022Z,0.00
2022-08-12T03:31:24.012Z,0.00
2022-08-12T03:32:35.498Z,0.00
2022-08-12T03:33:24.983Z,0.00
2022-08-12T03:34:23.977Z,0.00
2022-08-12T03:35:40.085Z,0.00
2022-08-12T03:36:24.971Z,0.00
2022-08-12T03:37:23.939Z,0.00
2022-08-12T03:38:23.936Z,0.00
2022-08-12T03:39:36.239Z,0.00
2022-08-12T03:40:24.913Z,0.00
2022-08-12T03:41:23.906Z,0.00
2022-08-12T03:42:23.886Z,0.00
2022-08-12T03:43:23.875Z,0.00
2022-08-12T03:44:25.655Z,0.00
2022-08-12T03:45:23.852Z,0.00
2022-08-12T03:46:23.855Z,0.00
2022-08-12T03:47:23.828Z,0.00
2022-08-12T03:48:23.816Z,0.00
2022-08-12T03:49:23.808Z,0.00
2022-08-12T03:50:23.803Z,0.00
2022-08-12T03:51:23.796Z,0.00
2022-08-12T03:52:23.786Z,0.00
2022-08-12T03:53:23.767Z,0.00
2022-08-12T03:54:23.754Z,0.00
2022-08-12T03:55:23.737Z,0.00
2022-08-12T03:56:23.735Z,0.00
2022-08-12T03:57:23.725Z,0.00
2022-08-12T03:58:24.504Z,0.00
2022-08-12T03:59:23.698Z,0.00
2022-08-12T04:00:24.559Z,0.00
2022-08-12T04:01:23.720Z,0.00
2022-08-12T04:02:23.668Z,0.00
2022-08-12T04:03:23.649Z,0.00
2022-08-12T04:04:23.657Z,0.00
2022-08-12T04:05:23.634Z,0.00
2022-08-12T04:06:35.852Z,0.00
2022-08-12T04:07:24.610Z,0.00
2022-08-12T04:08:23.602Z,0.00
2022-08-12T04:09:23.587Z,0.00
2022-08-12T04:10:23.575Z,0.00
2022-08-12T04:11:23.585Z,0.00
2022-08-12T04:12:23.567Z,0.00
2022-08-12T04:13:23.539Z,0.00
2022-08-12T04:14:23.528Z,0.00
2022-08-12T04:15:23.519Z,0.00
2022-08-12T04:16:23.521Z,0.00
2022-08-12T04:17:23.515Z,0.00
2022-08-12T04:18:23.505Z,0.00
2022-08-12T04:19:23.472Z,0.00
2022-08-12T04:20:23.469Z,0.00
2022-08-12T04:21:25.244Z,0.00
2022-08-12T04:22:23.463Z,0.00
2022-08-12T04:23:23.428Z,0.00
2022-08-12T04:24:23.426Z,0.00
2022-08-12T04:25:23.408Z,0.00
2022-08-12T04:26:23.405Z,0.00
2022-08-12T04:27:23.395Z,0.00
2022-08-12T04:28:23.376Z,0.00
2022-08-12T04:30:17.010Z,0.00
2022-08-12T04:30:33.287Z,0.00
2022-08-12T04:31:24.344Z,5.62
2022-08-12T04:32:23.352Z,5.62
2022-08-12T04:33:23.335Z,5.62
2022-08-12T04:34:23.313Z,5.62
2022-08-12T04:35:23.302Z,5.62
2022-08-12T04:36:23.292Z,5.62
2022-08-12T04:37:23.346Z,5.62
2022-08-12T04:38:23.264Z,5.62
2022-08-12T04:39:23.282Z,5.62
2022-08-12T04:40:28.396Z,5.62
2022-08-12T04:41:24.251Z,5.62
2022-08-12T04:42:23.246Z,5.62
2022-08-12T04:43:59.702Z,5.62
2022-08-12T04:44:24.211Z,5.62
2022-08-12T04:45:23.190Z,5.62
2022-08-12T04:46:26.423Z,5.62
2022-08-12T04:47:24.184Z,5.62
2022-08-12T04:48:23.157Z,5.62
2022-08-12T04:49:23.145Z,5.62
2022-08-12T04:50:34.802Z,5.62
2022-08-12T04:51:24.121Z,5.62
2022-08-12T04:52:23.135Z,11.25
2022-08-12T04:53:23.109Z,11.25
2022-08-12T04:54:23.267Z,11.25
2022-08-12T04:55:23.077Z,11.25
2022-08-12T04:56:23.085Z,11.25
2022-08-12T04:57:23.057Z,11.25
2022-08-12T04:58:29.249Z,11.25
2022-08-12T04:59:24.031Z,11.25
2022-08-12T05:00:23.038Z,11.25
2022-08-12T05:01:23.014Z,11.25
2022-08-12T05:02:23.218Z,11.25
2022-08-12T05:03:23.003Z,11.25
2022-08-12T05:04:22.986Z,11.25
2022-08-12T05:05:22.967Z,16.88
2022-08-12T05:06:26.923Z,16.88
2022-08-12T05:07:22.946Z,11.25
2022-08-12T05:08:22.947Z,11.25
2022-08-12T05:09:22.933Z,11.25
2022-08-12T05:10:33.798Z,16.88
2022-08-12T05:11:23.912Z,16.88
2022-08-12T05:12:22.896Z,16.88
2022-08-12T05:13:22.901Z,16.88
2022-08-12T05:14:22.867Z,16.88
2022-08-12T05:15:29.160Z,16.88
2022-08-12T05:16:27.195Z,16.88
2022-08-12T05:17:23.835Z,16.88
2022-08-12T05:18:22.836Z,16.88
2022-08-12T05:19:22.933Z,16.88
2022-08-12T05:20:22.861Z,16.88
2022-08-12T05:21:22.791Z,16.88
2022-08-12T05:22:22.777Z,16.88
2022-08-12T05:23:22.783Z,16.88
2022-08-12T05:24:22.754Z,22.50
2022-08-12T05:25:22.748Z,22.50
2022-08-12T05:26:22.748Z,22.50
2022-08-12T05:27:22.738Z,22.50
2022-08-12T05:28:22.715Z,22.50
2022-08-12T05:30:07.042Z,22.50
2022-08-12T05:30:23.691Z,22.50
2022-08-12T05:31:40.316Z,22.50
2022-08-12T05:32:23.665Z,28.12
2022-08-12T05:33:22.681Z,28.12
2022-08-12T05:34:26.613Z,45.00
2022-08-12T05:35:22.685Z,78.75
2022-08-12T05:36:22.628Z,123.75
2022-08-12T05:37:22.622Z,106.88
2022-08-12T05:38:22.620Z,78.75
2022-08-12T05:39:22.653Z,168.75
2022-08-12T05:40:22.582Z,180.00
2022-08-12T05:41:22.568Z,163.12
2022-08-12T05:42:22.562Z,191.25
2022-08-12T05:43:23.577Z,168.75
2022-08-12T05:44:22.534Z,151.88
2022-08-12T05:45:22.532Z,112.50
2022-08-12T05:46:22.513Z,140.62
2022-08-12T05:47:22.529Z,129.38
2022-08-12T05:48:23.495Z,78.75
2022-08-12T05:49:22.490Z,118.12
2022-08-12T05:50:22.471Z,140.62
2022-08-12T05:51:22.469Z,129.38
2022-08-12T05:52:22.446Z,112.50
2022-08-12T05:53:22.437Z,146.25
2022-08-12T05:54:47.343Z,219.38
2022-08-12T05:55:26.985Z,241.88
2022-08-12T05:56:23.398Z,230.62
2022-08-12T05:57:22.394Z,168.75
2022-08-12T05:58:22.396Z,129.38
2022-08-12T05:59:22.372Z,135.00
2022-08-12T06:00:22.370Z,146.25
2022-08-12T06:02:12.242Z,225.00
2022-08-12T06:02:23.350Z,303.75
2022-08-12T06:03:22.376Z,258.75
2022-08-12T06:04:22.314Z,185.62
2022-08-12T06:05:22.315Z,185.62
2022-08-12T06:06:22.427Z,157.50
2022-08-12T06:07:59.174Z,146.25
2022-08-12T06:08:23.274Z,163.12
2022-08-12T06:09:22.267Z,241.88
2022-08-12T06:10:32.219Z,253.12
2022-08-12T06:11:23.246Z,286.88
2022-08-12T06:12:22.224Z,286.88
2022-08-12T06:13:28.057Z,236.25
2022-08-12T06:14:22.204Z,281.25
2022-08-12T06:15:22.200Z,219.38
2022-08-12T06:16:22.195Z,174.38
2022-08-12T06:17:22.175Z,230.62
2022-08-12T06:18:24.459Z,337.50
2022-08-12T06:19:23.160Z,472.50
2022-08-12T06:20:29.438Z,483.75
2022-08-12T06:21:23.139Z,472.50
2022-08-12T06:22:22.117Z,495.00
2022-08-12T06:23:22.106Z,523.12
2022-08-12T06:24:22.105Z,528.75
2022-08-12T06:25:22.358Z,545.62
2022-08-12T06:26:22.071Z,585.00
2022-08-12T06:27:22.075Z,646.88
2022-08-12T06:28:22.050Z,669.38
2022-08-12T06:30:07.466Z,703.12
2022-08-12T06:30:33.504Z,804.38
2022-08-12T06:31:26.270Z,900.00
2022-08-12T06:32:22.006Z,1001.25
2022-08-12T06:33:25.049Z,1001.25
2022-08-12T06:35:24.277Z,877.50
2022-08-12T06:35:47.631Z,675.00
2022-08-12T06:36:22.988Z,511.88
2022-08-12T06:37:21.956Z,421.88
2022-08-12T06:38:21.946Z,371.25
2022-08-12T06:39:21.961Z,354.38
2022-08-12T06:40:21.924Z,343.12
2022-08-12T06:41:21.939Z,343.12
2022-08-12T06:42:32.357Z,337.50
2022-08-12T06:43:22.904Z,331.88
2022-08-12T06:44:21.875Z,320.62
2022-08-12T06:45:21.868Z,320.62
2022-08-12T06:46:21.870Z,315.00
2022-08-12T06:47:21.968Z,303.75
2022-08-12T06:48:21.838Z,303.75
2022-08-12T06:49:21.824Z,298.12
2022-08-12T06:50:21.810Z,309.38
2022-08-12T06:51:21.848Z,315.00
2022-08-12T06:52:21.794Z,326.25
2022-08-12T06:53:21.783Z,405.00
2022-08-12T06:54:31.255Z,613.12
2022-08-12T06:55:22.772Z,748.12
2022-08-12T06:56:27.352Z,804.38
2022-08-12T06:58:05.861Z,871.88
2022-08-12T06:58:22.735Z,900.00
2022-08-12T06:59:22.765Z,888.75
2022-08-12T07:00:21.703Z,990.00
2022-08-12T07:01:22.772Z,1051.88
2022-08-12T07:02:21.829Z,1029.38
2022-08-12T07:03:23.368Z,1001.25
2022-08-12T07:04:38.741Z,1006.88
2022-08-12T07:05:22.655Z,1018.12
2022-08-12T07:06:21.661Z,1012.50
2022-08-12T07:07:21.638Z,1029.38
2022-08-12T07:08:21.628Z,1068.75
2022-08-12T07:10:05.774Z,1068.75
2022-08-12T07:10:22.619Z,1051.88
2022-08-12T07:11:21.600Z,1046.25
2022-08-12T07:12:21.590Z,849.38
2022-08-12T07:13:21.577Z,438.75
2022-08-12T07:14:21.559Z,151.88
2022-08-12T07:15:21.567Z,135.00
2022-08-12T07:16:21.564Z,129.38
2022-08-12T07:17:21.532Z,123.75
2022-08-12T07:18:21.519Z,118.12
2022-08-12T07:19:21.508Z,118.12
2022-08-12T07:20:50.258Z,112.50
2022-08-12T07:21:22.518Z,112.50
2022-08-12T07:22:21.474Z,112.50
2022-08-12T07:23:21.468Z,112.50
2022-08-12T07:24:21.497Z,106.88
2022-08-12T07:25:21.451Z,106.88
2022-08-12T07:26:21.435Z,106.88
2022-08-12T07:27:21.440Z,106.88
2022-08-12T07:28:21.408Z,106.88
2022-08-12T07:29:21.410Z,106.88
2022-08-12T07:30:21.385Z,106.88
2022-08-12T07:31:21.382Z,101.25
2022-08-12T07:32:21.384Z,101.25
2022-08-12T07:33:21.360Z,101.25
2022-08-12T07:34:21.348Z,101.25
2022-08-12T07:35:21.345Z,101.25
2022-08-12T07:36:21.321Z,101.25
2022-08-12T07:37:21.433Z,101.25
2022-08-12T07:38:29.702Z,101.25
2022-08-12T07:39:22.332Z,101.25
2022-08-12T07:40:21.284Z,101.25
2022-08-12T07:41:21.273Z,101.25
2022-08-12T07:42:21.273Z,101.25
2022-08-12T07:43:21.250Z,101.25
2022-08-12T07:44:21.240Z,101.25
2022-08-12T07:45:21.231Z,101.25
2022-08-12T07:46:21.219Z,101.25
2022-08-12T07:47:21.335Z,101.25
2022-08-12T07:48:21.201Z,101.25
2022-08-12T07:49:21.182Z,101.25
2022-08-12T07:50:23.819Z,101.25
2022-08-12T07:51:24.750Z,101.25
2022-08-12T07:52:21.229Z,101.25
2022-08-12T07:53:21.154Z,101.25
2022-08-12T07:54:21.125Z,101.25
2022-08-12T07:55:21.122Z,101.25
2022-08-12T07:56:21.104Z,101.25
2022-08-12T07:57:21.161Z,101.25
2022-08-12T07:58:21.486Z,101.25
2022-08-12T07:59:21.083Z,101.25
2022-08-12T08:00:21.283Z,101.25
2022-08-12T08:01:28.727Z,101.25
2022-08-12T08:02:21.089Z,101.25
2022-08-12T08:03:22.067Z,101.25
2022-08-12T08:04:21.039Z,101.25
2022-08-12T08:05:21.017Z,101.25
2022-08-12T08:06:20.995Z,101.25
2022-08-12T08:07:21.002Z,101.25
2022-08-12T08:08:20.974Z,101.25
2022-08-12T08:09:20.986Z,101.25
2022-08-12T08:10:21.074Z,95.62
2022-08-12T08:11:20.980Z,95.62
2022-08-12T08:12:20.990Z,95.62
2022-08-12T08:13:20.922Z,95.62
2022-08-12T08:14:20.931Z,95.62
2022-08-12T08:15:21.007Z,95.62
2022-08-12T08:16:20.898Z,95.62
2022-08-12T08:17:20.915Z,95.62
2022-08-12T08:18:26.532Z,95.62
2022-08-12T08:19:20.858Z,95.62
2022-08-12T08:20:20.866Z,95.62
2022-08-12T08:21:20.850Z,95.62
2022-08-12T08:22:24.941Z,95.62
2022-08-12T08:23:21.843Z,101.25
2022-08-12T08:24:20.840Z,101.25
2022-08-12T08:25:35.915Z,101.25
2022-08-12T08:26:21.793Z,101.25
2022-08-12T08:27:20.785Z,101.25
2022-08-12T08:28:20.759Z,101.25
2022-08-12T08:29:20.748Z,101.25
2022-08-12T08:30:20.841Z,101.25
2022-08-12T08:31:20.752Z,101.25
2022-08-12T08:32:20.746Z,101.25
2022-08-12T08:33:24.456Z,101.25
2022-08-12T08:34:47.289Z,101.25
2022-08-12T08:35:21.682Z,101.25
2022-08-12T08:36:23.955Z,101.25
2022-08-12T08:37:20.687Z,106.88
2022-08-12T08:38:33.039Z,106.88
2022-08-12T08:39:21.717Z,106.88
2022-08-12T08:40:20.630Z,106.88
2022-08-12T08:42:17.366Z,106.88
2022-08-12T08:42:21.604Z,106.88
2022-08-12T08:43:20.595Z,106.88
2022-08-12T08:44:20.582Z,106.88
2022-08-12T08:45:20.596Z,106.88
2022-08-12T08:46:20.572Z,106.88
2022-08-12T08:47:20.552Z,106.88
2022-08-12T08:48:20.539Z,106.88
2022-08-12T08:49:20.532Z,106.88
2022-08-12T08:50:20.532Z,106.88
2022-08-12T08:51:20.538Z,112.50
2022-08-12T08:52:38.873Z,112.50
2022-08-12T08:53:21.488Z,112.50
2022-08-12T08:54:20.496Z,112.50
2022-08-12T08:55:27.428Z,112.50
2022-08-12T08:56:21.473Z,112.50
2022-08-12T08:57:20.445Z,112.50
2022-08-12T08:58:20.430Z,112.50
2022-08-12T08:59:20.427Z,112.50
2022-08-12T09:00:20.427Z,112.50
2022-08-12T09:01:20.733Z,112.50
2022-08-12T09:02:20.473Z,112.50
2022-08-12T09:05:12.892Z,112.50
2022-08-12T09:05:13.106Z,112.50
2022-08-12T09:05:24.808Z,112.50
2022-08-12T09:06:20.374Z,112.50
2022-08-12T09:07:43.776Z,112.50
2022-08-12T09:09:21.319Z,106.88
2022-08-12T09:10:32.349Z,106.88
2022-08-12T09:12:06.710Z,106.88
2022-08-12T09:12:27.263Z,106.88
2022-08-12T09:13:23.340Z,106.88
2022-08-12T09:14:29.411Z,112.50
2022-08-12T09:15:21.246Z,112.50
2022-08-12T09:16:20.726Z,112.50
2022-08-12T09:17:21.199Z,112.50
2022-08-12T09:18:26.702Z,112.50
2022-08-12T09:19:27.562Z,112.50
2022-08-12T09:20:21.199Z,112.50
2022-08-12T09:21:21.183Z,112.50
2022-08-12T09:22:20.849Z,112.50
2022-08-12T09:24:00.666Z,112.50
2022-08-12T09:24:21.165Z,112.50
2022-08-12T09:25:25.840Z,112.50
2022-08-12T09:26:21.134Z,112.50
2022-08-12T09:27:20.126Z,112.50
2022-08-12T09:28:20.541Z,112.50
2022-08-12T09:30:09.853Z,112.50
2022-08-12T09:30:41.964Z,112.50
2022-08-12T09:32:02.659Z,112.50
2022-08-12T09:32:31.403Z,112.50
2022-08-12T09:34:25.545Z,112.50
2022-08-12T09:34:27.804Z,112.50
2022-08-12T09:35:22.254Z,112.50
2022-08-12T09:36:31.441Z,112.50
2022-08-12T09:37:22.330Z,112.50
2022-08-12T09:38:27.872Z,112.50
2022-08-12T09:40:04.999Z,118.12
2022-08-12T09:40:57.312Z,118.12
2022-08-12T09:42:09.477Z,118.12
2022-08-12T09:42:40.381Z,118.12
2022-08-12T09:43:21.390Z,118.12
2022-08-12T09:44:38.177Z,118.12
2022-08-12T09:45:23.073Z,118.12
2022-08-12T09:46:22.234Z,118.12
2022-08-12T09:47:20.905Z,118.12
2022-08-12T09:48:22.093Z,118.12
2022-08-12T09:49:24.025Z,118.12
2022-08-12T09:50:20.966Z,118.12
2022-08-12T09:51:22.601Z,118.12
2022-08-12T09:52:20.086Z,118.12
2022-08-12T09:53:35.914Z,118.12
2022-08-12T09:54:33.900Z,118.12
2022-08-12T09:56:06.702Z,118.12
2022-08-12T09:56:57.158Z,118.12
2022-08-12T09:58:45.629Z,118.12
2022-08-12T09:58:57.900Z,118.12
2022-08-12T10:00:17.900Z,118.12
2022-08-12T10:00:29.256Z,118.12
2022-08-12T10:01:23.266Z,118.12
2022-08-12T10:02:45.561Z,118.12
2022-08-12T10:03:31.725Z,118.12
2022-08-12T10:04:20.963Z,118.12
2022-08-12T10:05:20.616Z,118.12
2022-08-12T10:06:31.490Z,118.12
2022-08-12T10:07:24.820Z,118.12
2022-08-12T10:08:19.693Z,118.12
2022-08-12T10:09:19.667Z,118.12
2022-08-12T10:10:23.071Z,118.12
2022-08-12T10:11:20.368Z,112.50
2022-08-12T10:12:32.725Z,112.50
2022-08-12T10:13:35.595Z,112.50
2022-08-12T10:14:20.621Z,112.50
2022-08-12T10:16:02.029Z,112.50
2022-08-12T10:16:22.624Z,112.50
2022-08-12T10:17:19.621Z,112.50
2022-08-12T10:18:19.589Z,112.50
2022-08-12T10:19:19.561Z,112.50
2022-08-12T10:20:19.556Z,112.50
2022-08-12T10:21:19.575Z,118.12
2022-08-12T10:22:38.908Z,112.50
2022-08-12T10:23:20.519Z,112.50
2022-08-12T10:24:20.619Z,112.50
2022-08-12T10:25:19.500Z,112.50
2022-08-12T10:26:37.922Z,112.50
2022-08-12T10:27:20.492Z,112.50
2022-08-12T10:28:25.161Z,112.50
2022-08-12T10:30:02.968Z,112.50
2022-08-12T10:30:39.564Z,112.50
2022-08-12T10:31:20.446Z,112.50
2022-08-12T10:32:21.202Z,112.50
2022-08-12T10:33:31.064Z,112.50
2022-08-12T10:34:25.934Z,112.50
2022-08-12T10:35:20.425Z,106.88
2022-08-12T10:36:19.382Z,106.88
2022-08-12T10:38:31.984Z,106.88
2022-08-12T10:38:34.420Z,106.88
2022-08-12T10:39:59.963Z,106.88
2022-08-12T10:40:22.013Z,106.88
2022-08-12T10:41:20.959Z,106.88
2022-08-12T10:42:29.577Z,106.88
2022-08-12T10:43:20.521Z,106.88
2022-08-12T10:44:19.303Z,106.88
2022-08-12T10:45:19.283Z,106.88
2022-08-12T10:46:19.274Z,106.88
2022-08-12T10:47:26.642Z,106.88
2022-08-12T10:48:33.277Z,106.88
2022-08-12T10:50:03.268Z,106.88
2022-08-12T10:50:29.485Z,106.88
2022-08-12T10:52:04.611Z,106.88
2022-08-12T10:52:47.242Z,101.25
2022-08-12T10:53:20.217Z,101.25
2022-08-12T10:54:20.221Z,101.25
2022-08-12T10:55:20.178Z,106.88
2022-08-12T10:56:19.168Z,101.25
2022-08-12T10:58:27.491Z,101.25
2022-08-12T10:58:31.827Z,101.25
2022-08-12T10:59:20.138Z,101.25
2022-08-12T11:00:34.110Z,101.25
2022-08-12T11:01:50.086Z,101.25
2022-08-12T11:04:20.741Z,101.25
2022-08-12T11:04:23.264Z,101.25
2022-08-12T11:04:35.590Z,101.25
2022-08-12T11:07:03.502Z,101.25
2022-08-12T11:07:07.262Z,101.25
2022-08-12T11:08:33.758Z,101.25
2022-08-12T11:08:35.907Z,101.25
2022-08-12T11:09:41.964Z,101.25
2022-08-12T11:10:20.213Z,101.25
2022-08-12T11:12:08.260Z,101.25
2022-08-12T11:12:56.299Z,95.62
2022-08-12T11:13:19.982Z,95.62
2022-08-12T11:14:50.416Z,95.62
2022-08-12T11:15:21.331Z,95.62
2022-08-12T11:16:23.228Z,95.62
2022-08-12T11:17:43.562Z,95.62
2022-08-12T11:18:19.939Z,95.62
2022-08-12T11:19:22.474Z,95.62
2022-08-12T11:20:19.017Z,95.62
2022-08-12T11:21:18.893Z,95.62
2022-08-12T11:22:24.121Z,95.62
2022-08-12T11:23:24.589Z,95.62
2022-08-12T11:24:30.457Z,95.62
2022-08-12T11:25:19.879Z,95.62
2022-08-12T11:26:18.867Z,95.62
2022-08-12T11:27:18.831Z,95.62
2022-08-12T11:28:33.552Z,95.62
2022-08-12T11:29:22.140Z,95.62
2022-08-12T11:30:31.156Z,95.62
2022-08-12T11:31:19.800Z,95.62
2022-08-12T11:32:18.804Z,90.00
2022-08-12T11:33:24.184Z,90.00
2022-08-12T11:34:52.622Z,90.00
2022-08-12T11:35:19.748Z,90.00
2022-08-12T11:36:21.869Z,90.00
2022-08-12T11:37:25.795Z,90.00
2022-08-12T11:38:19.690Z,90.00
2022-08-12T11:39:18.734Z,90.00
2022-08-12T11:40:19.701Z,90.00
2022-08-12T11:41:31.808Z,90.00
2022-08-12T11:42:19.670Z,90.00
2022-08-12T11:43:20.543Z,90.00
2022-08-12T11:44:37.289Z,90.00
2022-08-12T11:45:19.614Z,90.00
2022-08-12T11:46:18.606Z,90.00
2022-08-12T11:47:18.615Z,90.00
2022-08-12T11:48:18.581Z,90.00
2022-08-12T11:49:30.733Z,90.00
2022-08-12T11:50:19.957Z,90.00
2022-08-12T11:51:18.548Z,90.00
2022-08-12T11:52:54.910Z,84.38
2022-08-12T11:53:58.045Z,84.38
2022-08-12T11:54:19.519Z,84.38
2022-08-12T11:55:18.505Z,84.38
2022-08-12T11:56:18.499Z,84.38
2022-08-12T11:57:22.859Z,84.38
2022-08-12T11:59:02.953Z,84.38
2022-08-12T12:02:02.279Z,84.38
2022-08-12T12:02:20.499Z,84.38
2022-08-12T12:03:18.436Z,84.38
2022-08-12T12:04:29.212Z,84.38
2022-08-12T12:05:19.403Z,84.38
2022-08-12T12:06:18.406Z,84.38
2022-08-12T12:07:18.384Z,84.38
2022-08-12T12:08:37.282Z,84.38
2022-08-12T12:09:19.378Z,84.38
2022-08-12T12:10:18.384Z,84.38
2022-08-12T12:11:18.344Z,84.38
2022-08-12T12:12:18.336Z,84.38
2022-08-12T12:14:05.326Z,84.38
2022-08-12T12:14:19.331Z,84.38
2022-08-12T12:15:24.898Z,84.38
2022-08-12T12:16:19.330Z,84.38
2022-08-12T12:17:18.279Z,78.75
2022-08-12T12:18:18.277Z,84.38
2022-08-12T12:19:19.224Z,84.38
2022-08-12T12:20:18.253Z,78.75
2022-08-12T12:21:18.240Z,78.75
2022-08-12T12:22:23.596Z,78.75
2022-08-12T12:23:28.717Z,78.75
2022-08-12T12:24:21.141Z,78.75
2022-08-12T12:25:19.799Z,78.75
2022-08-12T12:26:34.753Z,78.75
2022-08-12T12:27:19.450Z,78.75
2022-08-12T12:28:37.010Z,78.75
2022-08-12T12:30:18.914Z,78.75
2022-08-12T12:30:30.061Z,78.75
2022-08-12T12:32:10.078Z,78.75
2022-08-12T12:32:19.151Z,78.75
2022-08-12T12:33:18.316Z,78.75
2022-08-12T12:34:30.438Z,78.75
2022-08-12T12:36:17.122Z,78.75
2022-08-12T12:36:24.089Z,78.75
2022-08-12T12:38:03.687Z,78.75
2022-08-12T12:38:19.101Z,78.75
2022-08-12T12:39:18.099Z,78.75
2022-08-12T12:40:18.092Z,78.75
2022-08-12T12:41:18.045Z,78.75
2022-08-12T12:42:43.005Z,78.75
2022-08-12T12:43:28.873Z,78.75
2022-08-12T12:44:25.673Z,78.75
2022-08-12T12:45:20.427Z,78.75
2022-08-12T12:46:18.981Z,78.75
2022-08-12T12:47:29.316Z,78.75
2022-08-12T12:48:18.977Z,78.75
2022-08-12T12:49:17.966Z,78.75
2022-08-12T12:50:35.091Z,78.75
2022-08-12T12:51:49.068Z,78.75
2022-08-12T12:52:21.224Z,78.75
2022-08-12T12:54:06.412Z,73.12
2022-08-12T12:54:20.049Z,78.75